createdAt,value
2023-04-02T00:02:34.229Z,3.13
2023-04-02T00:05:34.674Z,2.90
2023-04-02T00:08:04.168Z,2.53
2023-04-02T00:10:34.878Z,2.50
2023-04-02T00:13:07.730Z,3.30
2023-04-02T00:15:36.345Z,2.73
2023-04-02T00:18:06.464Z,2.97
2023-04-02T00:20:36.818Z,2.97
2023-04-02T00:23:05.284Z,3.00
2023-04-02T00:25:42.822Z,2.90
2023-04-02T00:28:12.928Z,3.40
2023-04-02T00:30:47.244Z,3.50
2023-04-02T00:33:18.845Z,3.60
2023-04-02T00:35:47.308Z,3.70
2023-04-02T00:38:19.733Z,3.57
2023-04-02T00:40:48.107Z,3.80
2023-04-02T00:43:17.652Z,3.83
2023-04-02T00:45:50.870Z,3.80
2023-04-02T00:48:27.688Z,4.23
2023-04-02T00:50:56.641Z,4.67
2023-04-02T00:53:27.449Z,3.97
2023-04-02T00:55:56.037Z,4.13
2023-04-02T00:58:27.801Z,4.30
2023-04-02T01:00:56.633Z,3.80
2023-04-02T01:03:34.693Z,3.90
2023-04-02T01:06:10.802Z,3.97
2023-04-02T01:08:48.257Z,3.93
2023-04-02T01:11:23.996Z,4.33
2023-04-02T01:13:57.333Z,4.13
2023-04-02T01:16:30.452Z,3.77
2023-04-02T01:19:03.829Z,3.93
2023-04-02T01:21:42.167Z,3.10
2023-04-02T01:24:11.212Z,4.00
2023-04-02T01:26:45.653Z,4.00
2023-04-02T01:29:16.042Z,3.73
2023-04-02T01:31:45.749Z,3.63
2023-04-02T01:34:15.281Z,3.60
2023-04-02T01:36:48.465Z,3.53
2023-04-02T01:39:22.275Z,3.73
2023-04-02T01:41:55.346Z,3.60
2023-04-02T01:44:28.104Z,3.60
2023-04-02T01:46:58.810Z,3.60
2023-04-02T01:49:27.165Z,3.50
2023-04-02T01:51:57.173Z,3.53
2023-04-02T01:54:25.946Z,3.73
2023-04-02T01:56:54.362Z,3.80
2023-04-02T01:59:24.240Z,3.87
2023-04-02T02:01:58.547Z,4.20
2023-04-02T02:04:27.032Z,4.73
2023-04-02T02:06:55.835Z,5.03
2023-04-02T02:09:26.029Z,5.07
2023-04-02T02:11:54.298Z,4.97
2023-04-02T02:14:24.626Z,5.57
2023-04-02T02:16:56.579Z,4.83
2023-04-02T02:19:29.060Z,5.00
2023-04-02T02:21:59.144Z,4.73
2023-04-02T02:24:30.442Z,5.00
2023-04-02T02:27:04.698Z,4.77
2023-04-02T02:29:33.370Z,4.10
2023-04-02T02:32:01.970Z,4.87
2023-04-02T02:34:34.750Z,4.53
2023-04-02T02:37:06.728Z,4.40
2023-04-02T02:39:36.772Z,4.97
2023-04-02T02:42:08.009Z,4.50
2023-04-02T02:44:38.016Z,4.37
2023-04-02T02:47:10.651Z,4.37
2023-04-02T02:49:42.188Z,4.77
2023-04-02T02:52:15.334Z,4.50
2023-04-02T02:54:45.978Z,4.50
2023-04-02T02:57:15.749Z,4.20
2023-04-02T02:59:44.757Z,4.50
2023-04-02T03:02:13.079Z,4.40
2023-04-02T03:04:42.766Z,4.30
2023-04-02T03:07:10.976Z,4.43
2023-04-02T03:09:43.728Z,4.10
2023-04-02T03:12:22.533Z,5.07
2023-04-02T03:14:55.381Z,4.30
2023-04-02T03:17:28.355Z,4.67
2023-04-02T03:20:01.486Z,4.23
2023-04-02T03:22:35.369Z,3.83
2023-04-02T03:25:04.800Z,3.80
2023-04-02T03:27:36.114Z,4.07
2023-04-02T03:30:08.055Z,3.83
2023-04-02T03:32:39.437Z,3.70
2023-04-02T03:35:17.674Z,3.60
2023-04-02T03:37:47.965Z,3.47
2023-04-02T03:40:18.568Z,3.87
2023-04-02T03:42:48.147Z,3.87
2023-04-02T03:45:18.581Z,3.73
2023-04-02T03:47:48.992Z,3.53
2023-04-02T03:50:20.340Z,3.60
2023-04-02T03:52:49.655Z,3.53
2023-04-02T03:55:20.010Z,3.30
2023-04-02T03:57:53.291Z,3.80
2023-04-02T04:00:23.576Z,3.70
2023-04-02T04:02:53.633Z,3.37
2023-04-02T04:05:25.953Z,3.43
2023-04-02T04:07:55.448Z,3.83
2023-04-02T04:10:26.245Z,3.40
2023-04-02T04:12:56.080Z,3.63
2023-04-02T04:15:26.868Z,3.27
2023-04-02T04:18:01.920Z,3.20
2023-04-02T04:20:34.456Z,2.90
2023-04-02T04:23:13.475Z,2.87
2023-04-02T04:25:42.104Z,3.20
2023-04-02T04:28:16.509Z,3.23
2023-04-02T04:30:51.613Z,3.03
2023-04-02T04:33:23.718Z,3.20
2023-04-02T04:35:55.987Z,3.20
2023-04-02T04:38:32.717Z,2.90
2023-04-02T04:41:03.658Z,3.20
2023-04-02T04:43:34.110Z,2.63
2023-04-02T04:46:04.414Z,2.87
2023-04-02T04:48:37.125Z,2.40
2023-04-02T04:51:09.972Z,3.00
2023-04-02T04:53:47.599Z,2.93
2023-04-02T04:56:19.787Z,2.63
2023-04-02T04:58:50.825Z,2.37
2023-04-02T05:01:21.322Z,2.47
2023-04-02T05:03:52.834Z,2.70
2023-04-02T05:06:25.881Z,2.50
2023-04-02T05:08:56.786Z,2.80
2023-04-02T05:11:29.163Z,2.87
2023-04-02T05:13:59.832Z,2.83
2023-04-02T05:16:29.468Z,2.70
2023-04-02T05:19:00.857Z,2.73
2023-04-02T05:21:35.137Z,2.20
2023-04-02T05:24:07.782Z,2.73
2023-04-02T05:26:41.155Z,2.63
2023-04-02T05:29:13.805Z,2.90
2023-04-02T05:31:43.691Z,2.13
2023-04-02T05:34:13.280Z,2.77
2023-04-02T05:36:45.122Z,2.43
2023-04-02T05:39:13.517Z,2.30
2023-04-02T05:41:42.376Z,2.47
2023-04-02T05:44:13.075Z,2.30
2023-04-02T05:46:45.730Z,2.40
2023-04-02T05:49:19.201Z,2.83
2023-04-02T05:51:50.410Z,2.40
2023-04-02T05:54:23.306Z,2.93
2023-04-02T05:56:54.296Z,2.20
2023-04-02T05:59:24.837Z,2.57
2023-04-02T06:01:55.949Z,2.60
2023-04-02T06:04:27.574Z,2.80
2023-04-02T06:07:01.139Z,2.60
2023-04-02T06:09:37.704Z,2.37
2023-04-02T06:12:12.492Z,2.50
2023-04-02T06:14:40.734Z,2.57
2023-04-02T06:17:09.010Z,2.50
2023-04-02T06:19:38.989Z,2.37
2023-04-02T06:22:16.999Z,2.00
2023-04-02T06:24:46.562Z,2.50
2023-04-02T06:27:18.760Z,2.70
2023-04-02T06:29:47.564Z,1.97
2023-04-02T06:32:16.272Z,2.20
2023-04-02T06:34:44.776Z,2.30
2023-04-02T06:37:17.324Z,2.17
2023-04-02T06:39:45.645Z,2.60
2023-04-02T06:42:15.610Z,2.20
2023-04-02T06:44:44.089Z,2.20
2023-04-02T06:47:17.366Z,2.00
2023-04-02T06:49:48.183Z,2.30
2023-04-02T06:52:21.208Z,2.17
2023-04-02T06:54:49.773Z,2.20
2023-04-02T06:57:18.247Z,2.43
2023-04-02T06:59:47.159Z,2.87
2023-04-02T07:02:21.498Z,2.60
2023-04-02T07:04:51.127Z,2.13
2023-04-02T07:07:20.865Z,2.23
2023-04-02T07:09:49.724Z,2.30
2023-04-02T07:12:21.840Z,2.00
2023-04-02T07:14:50.445Z,2.03
2023-04-02T07:17:18.868Z,1.90
2023-04-02T07:19:49.555Z,2.00
2023-04-02T07:22:18.633Z,2.30
2023-04-02T07:24:48.710Z,1.90
2023-04-02T07:27:17.306Z,1.77
2023-04-02T07:29:45.804Z,2.30
2023-04-02T07:32:14.583Z,1.97
2023-04-02T07:34:43.042Z,2.47
2023-04-02T07:37:14.703Z,2.27
2023-04-02T07:39:42.967Z,1.97
2023-04-02T07:42:12.741Z,2.40
2023-04-02T07:44:41.129Z,2.40
2023-04-02T07:47:10.569Z,1.67
2023-04-02T07:49:38.830Z,2.13
2023-04-02T07:52:07.337Z,2.10
2023-04-02T07:54:35.828Z,2.33
2023-04-02T07:57:04.264Z,2.63
2023-04-02T07:59:34.457Z,2.10
2023-04-02T08:02:02.877Z,2.90
2023-04-02T08:04:31.259Z,2.30
2023-04-02T08:06:59.881Z,2.10
2023-04-02T08:09:28.208Z,2.20
2023-04-02T08:11:56.671Z,2.20
2023-04-02T08:14:25.043Z,1.83
2023-04-02T08:16:56.194Z,2.43
2023-04-02T08:19:24.933Z,2.20
2023-04-02T08:21:54.406Z,2.00
2023-04-02T08:24:23.156Z,2.20
2023-04-02T08:26:54.360Z,2.03
2023-04-02T08:29:22.814Z,2.00
2023-04-02T08:31:51.113Z,1.63
2023-04-02T08:34:20.725Z,1.73
2023-04-02T08:36:48.959Z,1.90
2023-04-02T08:39:17.385Z,1.77
2023-04-02T08:41:47.024Z,1.80
2023-04-02T08:44:20.379Z,1.77
2023-04-02T08:46:59.772Z,1.37
2023-04-02T08:49:36.684Z,1.77
2023-04-02T08:52:05.260Z,1.67
2023-04-02T08:54:37.872Z,1.80
2023-04-02T08:57:08.230Z,1.70
2023-04-02T08:59:37.600Z,1.30
2023-04-02T09:02:15.055Z,1.60
2023-04-02T09:04:44.842Z,1.73
2023-04-02T09:07:14.431Z,1.40
2023-04-02T09:09:42.715Z,1.20
2023-04-02T09:12:18.207Z,1.80
2023-04-02T09:14:47.270Z,2.03
2023-04-02T09:17:19.140Z,2.00
2023-04-02T09:19:54.417Z,1.40
2023-04-02T09:22:23.237Z,1.60
2023-04-02T09:24:59.117Z,1.70
2023-04-02T09:27:29.777Z,1.80
2023-04-02T09:30:00.983Z,1.80
2023-04-02T09:32:34.964Z,1.80
2023-04-02T09:35:24.592Z,1.60
2023-04-02T09:38:13.518Z,2.17
2023-04-02T09:40:45.673Z,1.60
2023-04-02T09:43:14.885Z,1.90
2023-04-02T09:45:43.839Z,1.20
2023-04-02T09:48:23.964Z,1.80
2023-04-02T09:51:05.052Z,1.50
2023-04-02T09:53:35.043Z,2.53
2023-04-02T09:56:10.678Z,3.10
2023-04-02T09:58:39.007Z,1.60
2023-04-02T10:01:10.905Z,1.60
2023-04-02T10:03:39.182Z,1.80
2023-04-02T10:06:10.490Z,1.60
2023-04-02T10:08:39.198Z,1.50
2023-04-02T10:11:09.770Z,1.60
2023-04-02T10:13:42.147Z,1.90
2023-04-02T10:16:14.014Z,2.00
2023-04-02T10:18:46.594Z,2.10
2023-04-02T10:21:18.714Z,1.60
2023-04-02T10:23:47.108Z,1.47
2023-04-02T10:26:21.375Z,1.73
2023-04-02T10:28:55.109Z,2.20
2023-04-02T10:31:25.383Z,1.80
2023-04-02T10:33:56.362Z,1.80
2023-04-02T10:36:31.594Z,1.60
2023-04-02T10:39:01.914Z,3.43
2023-04-02T10:41:33.297Z,1.80
2023-04-02T10:44:17.123Z,1.60
2023-04-02T10:46:52.588Z,2.03
2023-04-02T10:49:24.972Z,1.83
2023-04-02T10:51:57.070Z,2.00
2023-04-02T10:54:34.483Z,1.43
2023-04-02T10:57:06.872Z,1.70
2023-04-02T10:59:36.664Z,1.50
2023-04-02T11:02:10.739Z,1.60
2023-04-02T11:04:43.802Z,1.20
2023-04-02T11:07:17.200Z,1.10
2023-04-02T11:09:46.362Z,1.30
2023-04-02T11:12:20.415Z,1.63
2023-04-02T11:14:48.985Z,1.77
2023-04-02T11:17:18.077Z,1.90
2023-04-02T11:19:46.383Z,1.67
2023-04-02T11:22:19.862Z,1.77
2023-04-02T11:24:49.726Z,1.60
2023-04-02T11:27:20.155Z,1.73
2023-04-02T11:29:49.738Z,2.00
2023-04-02T11:32:33.384Z,1.70
2023-04-02T11:35:07.816Z,2.00
2023-04-02T11:37:39.429Z,1.73
2023-04-02T11:40:28.467Z,1.50
2023-04-02T11:42:56.784Z,1.73
2023-04-02T11:45:52.866Z,1.83
2023-04-02T11:48:31.490Z,1.60
2023-04-02T11:51:04.572Z,1.63
2023-04-02T11:53:35.805Z,1.40
2023-04-02T11:56:08.878Z,2.30
2023-04-02T11:58:46.037Z,1.50
2023-04-02T12:01:43.959Z,1.50
2023-04-02T12:04:18.531Z,1.60
2023-04-02T12:06:55.203Z,1.70
2023-04-02T12:09:26.830Z,1.90
2023-04-02T12:11:56.426Z,1.73
2023-04-02T12:14:43.122Z,1.23
2023-04-02T12:17:26.978Z,1.57
2023-04-02T12:19:56.440Z,1.70
2023-04-02T12:22:26.245Z,1.87
2023-04-02T12:24:58.191Z,1.57
2023-04-02T12:27:28.659Z,1.40
2023-04-02T12:29:57.193Z,1.50
2023-04-02T12:32:28.971Z,1.27
2023-04-02T12:34:59.133Z,1.70
2023-04-02T12:37:28.400Z,1.53
2023-04-02T12:39:59.163Z,1.90
2023-04-02T12:42:28.605Z,1.30
2023-04-02T12:44:56.941Z,1.47
2023-04-02T12:47:25.323Z,1.23
2023-04-02T12:49:54.152Z,1.53
2023-04-02T12:52:28.951Z,1.40
2023-04-02T12:54:59.468Z,1.50
2023-04-02T12:57:36.272Z,1.77
2023-04-02T13:00:25.757Z,1.83
2023-04-02T13:03:01.022Z,2.73
2023-04-02T13:05:37.130Z,1.50
2023-04-02T13:08:06.035Z,1.20
2023-04-02T13:10:35.105Z,1.70
2023-04-02T13:13:04.666Z,1.07
2023-04-02T13:15:34.422Z,1.97
2023-04-02T13:18:08.539Z,1.57
2023-04-02T13:20:38.352Z,1.40
2023-04-02T13:23:21.569Z,1.60
2023-04-02T13:25:49.963Z,1.10
2023-04-02T13:28:18.677Z,1.80
2023-04-02T13:30:47.229Z,1.40
2023-04-02T13:33:17.271Z,1.50
2023-04-02T13:35:46.365Z,1.50
2023-04-02T13:38:14.664Z,1.40
2023-04-02T13:40:42.898Z,1.57
2023-04-02T13:43:13.719Z,1.23
2023-04-02T13:45:42.870Z,1.50
2023-04-02T13:48:12.358Z,1.20
2023-04-02T13:50:42.132Z,1.57
2023-04-02T13:53:14.994Z,1.57
2023-04-02T13:55:44.177Z,1.10
2023-04-02T13:58:12.501Z,1.00
2023-04-02T14:00:41.092Z,1.20
2023-04-02T14:03:12.187Z,1.60
2023-04-02T14:05:47.616Z,2.20
2023-04-02T14:08:20.816Z,1.70
2023-04-02T14:10:55.333Z,1.33
2023-04-02T14:13:29.953Z,1.67
2023-04-02T14:16:07.211Z,1.57
2023-04-02T14:18:41.298Z,1.53
2023-04-02T14:21:16.418Z,1.30
2023-04-02T14:23:51.993Z,1.57
2023-04-02T14:26:26.336Z,1.50
2023-04-02T14:28:58.959Z,1.57
2023-04-02T14:31:29.796Z,1.50
2023-04-02T14:34:03.370Z,1.60
2023-04-02T14:36:36.836Z,1.67
2023-04-02T14:39:08.434Z,1.50
2023-04-02T14:41:40.266Z,1.37
2023-04-02T14:44:10.534Z,1.43
2023-04-02T14:46:39.707Z,1.53
2023-04-02T14:49:11.986Z,1.77
2023-04-02T14:51:43.528Z,1.63
2023-04-02T14:54:14.673Z,1.73
2023-04-02T14:56:47.142Z,1.70
2023-04-02T14:59:22.827Z,1.80
2023-04-02T15:01:51.911Z,1.60
2023-04-02T15:04:22.275Z,1.63
2023-04-02T15:06:55.446Z,1.87
2023-04-02T15:09:26.034Z,1.50
2023-04-02T15:11:56.600Z,1.20
2023-04-02T15:14:27.071Z,1.80
2023-04-02T15:16:55.503Z,1.43
2023-04-02T15:19:23.747Z,1.80
2023-04-02T15:22:06.920Z,1.20
2023-04-02T15:24:40.182Z,1.73
2023-04-02T15:27:24.066Z,1.30
2023-04-02T15:29:55.679Z,1.57
2023-04-02T15:32:31.248Z,1.50
2023-04-02T15:35:03.311Z,1.57
2023-04-02T15:37:35.422Z,1.60
2023-04-02T15:40:09.528Z,1.40
2023-04-02T15:42:39.247Z,1.30
2023-04-02T15:45:22.477Z,1.40
2023-04-02T15:48:04.944Z,1.40
2023-04-02T15:50:44.837Z,0.90
2023-04-02T15:53:23.228Z,1.40
2023-04-02T15:55:56.173Z,1.53
2023-04-02T15:58:26.016Z,1.50
2023-04-02T16:00:58.866Z,1.43
2023-04-02T16:03:35.151Z,1.57
2023-04-02T16:06:17.364Z,1.50
2023-04-02T16:08:57.120Z,1.30
2023-04-02T16:11:26.355Z,1.40
2023-04-02T16:13:56.332Z,1.30
2023-04-02T16:16:28.657Z,1.73
2023-04-02T16:19:00.987Z,1.40
2023-04-02T16:21:31.107Z,1.50
2023-04-02T16:24:01.647Z,1.57
2023-04-02T16:26:37.757Z,1.37
2023-04-02T16:29:16.833Z,1.47
2023-04-02T16:31:49.320Z,1.97
2023-04-02T16:34:21.887Z,1.60
2023-04-02T16:36:55.489Z,1.40
2023-04-02T16:39:29.570Z,1.23
2023-04-02T16:42:04.698Z,1.27
2023-04-02T16:44:37.832Z,1.27
2023-04-02T16:47:15.918Z,1.50
2023-04-02T16:49:47.400Z,1.53
2023-04-02T16:52:20.469Z,1.90
2023-04-02T16:54:54.222Z,2.03
2023-04-02T16:57:28.118Z,1.80
2023-04-02T17:00:01.799Z,2.60
2023-04-02T17:02:36.422Z,2.30
2023-04-02T17:05:08.967Z,1.70
2023-04-02T17:07:40.702Z,2.03
2023-04-02T17:10:23.942Z,2.27
2023-04-02T17:12:57.170Z,2.17
2023-04-02T17:15:28.725Z,2.00
2023-04-02T17:17:59.052Z,2.47
2023-04-02T17:20:27.505Z,1.87
2023-04-02T17:22:56.163Z,2.40
2023-04-02T17:25:26.060Z,2.57
2023-04-02T17:27:57.091Z,2.30
2023-04-02T17:30:28.468Z,2.00
2023-04-02T17:32:56.913Z,2.20
2023-04-02T17:35:29.801Z,2.13
2023-04-02T17:38:02.183Z,2.20
2023-04-02T17:40:33.509Z,1.67
2023-04-02T17:43:06.680Z,1.87
2023-04-02T17:45:36.468Z,1.30
2023-04-02T17:48:10.778Z,1.50
2023-04-02T17:50:51.952Z,2.20
2023-04-02T17:53:28.486Z,1.97
2023-04-02T17:56:02.744Z,1.30
2023-04-02T17:58:53.664Z,1.73
2023-04-02T18:01:26.896Z,2.07
2023-04-02T18:03:59.438Z,2.30
2023-04-02T18:06:33.092Z,2.10
2023-04-02T18:09:10.293Z,1.50
2023-04-02T18:11:44.588Z,1.60
2023-04-02T18:14:21.519Z,1.63
2023-04-02T18:16:53.337Z,1.50
2023-04-02T18:19:25.755Z,1.60
2023-04-02T18:22:00.170Z,1.30
2023-04-02T18:24:43.489Z,2.50
2023-04-02T18:27:19.075Z,2.60
2023-04-02T18:29:52.857Z,1.83
2023-04-02T18:32:29.242Z,1.90
2023-04-02T18:35:03.269Z,1.40
2023-04-02T18:37:37.822Z,1.80
2023-04-02T18:40:16.573Z,1.57
2023-04-02T18:42:55.228Z,1.60
2023-04-02T18:45:30.274Z,2.20
2023-04-02T18:48:02.923Z,2.00
2023-04-02T18:50:32.573Z,1.80
2023-04-02T18:53:03.676Z,1.87
2023-04-02T18:55:33.187Z,2.20
2023-04-02T18:58:04.047Z,2.53
2023-04-02T19:00:35.036Z,2.40
2023-04-02T19:03:05.789Z,2.90
2023-04-02T19:05:39.077Z,2.43
2023-04-02T19:08:12.199Z,2.20
2023-04-02T19:10:41.392Z,1.90
2023-04-02T19:13:09.977Z,1.93
2023-04-02T19:15:42.708Z,1.80
2023-04-02T19:18:15.375Z,1.60
2023-04-02T19:20:46.190Z,1.90
2023-04-02T19:23:20.449Z,1.77
2023-04-02T19:25:56.536Z,1.80
2023-04-02T19:28:27.883Z,1.67
2023-04-02T19:31:20.140Z,1.70
2023-04-02T19:33:51.967Z,1.70
2023-04-02T19:36:25.521Z,1.63
2023-04-02T19:39:02.307Z,1.90
2023-04-02T19:41:33.076Z,1.60
2023-04-02T19:44:01.408Z,1.27
2023-04-02T19:46:29.885Z,1.80
2023-04-02T19:49:03.867Z,1.90
2023-04-02T19:51:33.535Z,1.70
2023-04-02T19:54:02.797Z,1.40
2023-04-02T19:56:31.185Z,1.53
2023-04-02T19:59:02.454Z,1.13
2023-04-02T20:01:36.204Z,1.40
2023-04-02T20:04:05.931Z,1.53
2023-04-02T20:06:34.421Z,1.47
2023-04-02T20:09:02.726Z,1.23
2023-04-02T20:11:31.101Z,1.40
2023-04-02T20:13:59.402Z,1.57
2023-04-02T20:16:27.673Z,1.50
2023-04-02T20:18:56.448Z,1.73
2023-04-02T20:21:26.571Z,1.90
2023-04-02T20:23:55.201Z,1.73
2023-04-02T20:26:23.525Z,2.03
2023-04-02T20:28:51.806Z,1.50
2023-04-02T20:31:20.516Z,1.70
2023-04-02T20:33:49.006Z,2.00
2023-04-02T20:36:18.112Z,2.33
2023-04-02T20:38:47.730Z,1.80
2023-04-02T20:41:16.672Z,2.00
2023-04-02T20:43:44.953Z,2.07
2023-04-02T20:46:14.045Z,2.00
2023-04-02T20:48:42.346Z,1.80
2023-04-02T20:51:11.305Z,1.77
2023-04-02T20:53:39.620Z,1.43
2023-04-02T20:56:10.375Z,1.80
2023-04-02T20:58:39.308Z,1.90
2023-04-02T21:01:08.810Z,1.70
2023-04-02T21:03:37.223Z,1.60
2023-04-02T21:06:05.677Z,1.80
2023-04-02T21:08:33.933Z,1.70
2023-04-02T21:11:06.242Z,1.97
2023-04-02T21:13:37.036Z,1.73
2023-04-02T21:16:05.875Z,1.60
2023-04-02T21:18:34.301Z,1.50
2023-04-02T21:21:03.705Z,1.60
2023-04-02T21:23:32.347Z,1.70
2023-04-02T21:26:01.493Z,1.87
2023-04-02T21:28:30.095Z,1.53
2023-04-02T21:31:06.278Z,1.40
2023-04-02T21:33:38.371Z,1.40
2023-04-02T21:36:07.224Z,1.80
2023-04-02T21:38:35.592Z,1.67
2023-04-02T21:41:14.032Z,1.50
2023-04-02T21:43:42.287Z,1.60
2023-04-02T21:46:12.029Z,1.70
2023-04-02T21:48:41.794Z,1.57
2023-04-02T21:51:11.080Z,1.63
2023-04-02T21:53:39.311Z,1.90
2023-04-02T21:56:08.670Z,1.70
2023-04-02T21:58:37.162Z,1.30
2023-04-02T22:01:11.212Z,1.90
2023-04-02T22:03:43.928Z,1.63
2023-04-02T22:06:13.082Z,1.60
2023-04-02T22:08:42.254Z,1.50
2023-04-02T22:11:11.427Z,1.80
2023-04-02T22:13:40.342Z,1.53
2023-04-02T22:16:09.902Z,1.97
2023-04-02T22:18:39.017Z,2.03
2023-04-02T22:21:09.123Z,1.37
2023-04-02T22:23:37.924Z,1.70
2023-04-02T22:26:07.325Z,1.63
2023-04-02T22:28:36.131Z,1.50
2023-04-02T22:31:06.500Z,1.70
2023-04-02T22:33:35.156Z,1.40
2023-04-02T22:36:03.838Z,1.50
2023-04-02T22:38:33.573Z,1.73
2023-04-02T22:41:05.618Z,2.10
2023-04-02T22:43:33.953Z,1.50
2023-04-02T22:46:02.263Z,1.70
2023-04-02T22:48:30.583Z,1.67
2023-04-02T22:50:59.005Z,1.47
2023-04-02T22:53:27.374Z,1.90
2023-04-02T22:55:57.080Z,1.90
2023-04-02T22:58:26.540Z,1.77
2023-04-02T23:00:54.827Z,1.80
2023-04-02T23:03:23.055Z,1.80
2023-04-02T23:05:59.519Z,1.67
2023-04-02T23:08:27.758Z,1.50
2023-04-02T23:11:03.028Z,1.60
2023-04-02T23:13:31.286Z,1.80
2023-04-02T23:16:05.805Z,1.73
2023-04-02T23:18:34.463Z,2.30
2023-04-02T23:21:02.755Z,1.17
2023-04-02T23:23:31.464Z,1.63
2023-04-02T23:26:08.829Z,1.53
2023-04-02T23:28:37.705Z,1.60
2023-04-02T23:31:06.795Z,1.73
2023-04-02T23:33:35.223Z,1.67
2023-04-02T23:36:08.006Z,1.57
2023-04-02T23:38:36.289Z,1.80
2023-04-02T23:41:04.521Z,1.70
2023-04-02T23:43:34.120Z,1.40
2023-04-02T23:46:02.325Z,1.77
2023-04-02T23:48:30.547Z,1.40
2023-04-02T23:50:58.717Z,1.43
2023-04-02T23:53:26.949Z,1.60
2023-04-02T23:55:55.248Z,1.90
2023-04-02T23:58:23.462Z,2.03
